Weather at Pittsburgh International Airport

Public forecast

Using degrees Fahrenheit for public forecast. Weather courtesy of forecast.io.

Current aviation weather report (METAR) for Pittsburgh International Airport

Retrieved 2021/10/21 03:51 UTC (14 minutes ago):

KPIT 210351Z 18004KT 10SM FEW080 13/08 A3008 RMK AO2 SLP190 T01330078

Aviation forecast (TAF) for Pittsburgh International Airport

Retrieved 2021-10-21 00:22 UTC (4 hours ago):

TAF KPIT 202320Z 2100/2206 21004KT P6SM SKC FM211400 20008G17KT P6SM BKN150 FM211800 21010G18KT P6SM -SHRA BKN045 TEMPO 2119/2123 21015G25KT 4SM TSRA BKN035CB FM220100 27008KT P6SM -SHRA BKN035 FM220300 28005KT P6SM SCT035